Lake Worth, FL (33467)

5:39 PM EST on December 10, 2016 (GMT -0500)
Suburban Lake Worth/Lantana | | Change Station

Elev 21 ft 26.60 °N, 80.16 °W | Updated 60 days ago

Rain
Rain
76 °F
Feels Like 76 °F
N
12
Wind Variable Wind from ENE
Gusts 18 mph

Today
High -- | Low -- °F
--% Chance of Precip.
Yesterday
High -- | Low -- °F
Precip. -- in
Pressure 30.23 in
Visibility 9.0 miles
Clouds Mostly Cloudy 1700 ft
Overcast 3500 ft
Dew Point 65 °F
Humidity 68%
Rainfall 0.14 in
Snow Depth Not available.
6:58 AM 5:28 PM
Waxing Gibbous, 87% visible
METAR KPBI 102153Z 07016G21KT 9SM BKN017 OVC035 21/18 A3023 RMK AO2 RAE52 SLP235 P0007 T02110178
Pressure 30.23 in
Visibility 9.0 miles
Clouds Mostly Cloudy 1700 ft
Overcast 3500 ft
Dew Point 65 °F
Humidity 68%
Rainfall 0.14 in
Snow Depth Not available.
6:58 AM 5:28 PM
Waxing Gibbous, 87% visible
METAR KPBI 102153Z 07016G21KT 9SM BKN017 OVC035 21/18 A3023 RMK AO2 RAE52 SLP235 P0007 T02110178

10-Day Weather Forecast

Almanac

Astronomy

Dec. 10, 2016 Rise Set
Actual Time
Civil Twilight
Nautical Twilight
Astronomical Twilight
Moon
Length of Visible Light
Length of Day
Tomorrow will be .
, % of the Moon is Illuminated

Today's Extremes

State Highs State Lows

Community

WunderPhotos

Upload Photos

1,956,671 photos uploaded!

WunderBlog® & News

Nearby

Air Quality

  Air Quality AQ Index Pollutant
Not available.

Snow Depth

Station Depth Elevation

Earthquake Activity

City Distance Mag. Time & Date
Minimum magnitude displayed is 2.5.

Coastal Water Temperatures

Place Temperature

Stations

Nearby Weather Stations

Station Location Temp. Windchill Dew Point Humidity Wind Precip. Elev Updated Type
                   

Watches & Warnings

There are currently no watches in effect.